Terminal Aerodrome Forecast
Issued by NWS Goodland, KS

Home | Current Version | Previous Version | Graphics & Text | Print | Product List | Glossary On
Versions: 1 2 3 4 5 6 7 8 9 10 11 12 13 14 15
878
FTUS43 KGLD 110601 AAA
TAFGLD
TAF AMD
KGLD 110601Z 1106/1206 24007KT P6SM SCT090 BKN120
     FM110800 30008KT P6SM BKN120
     FM111000 32008KT P6SM BKN120 WS010/35040KT
     FM111300 34012KT P6SM VCSH BKN040
     FM111600 35014G25KT P6SM BKN050
     FM112100 36008KT P6SM SCT050
     FM120000 VRB05KT P6SM FEW050=

USA.gov is the U.S. government's official web portal to all federal, state and local government web resources and services.